createdAt,value
2023-01-19T00:00:12.151Z,52.90
2023-01-19T00:03:15.952Z,56.90
2023-01-19T00:05:52.753Z,54.50
2023-01-19T00:08:26.067Z,60.90
2023-01-19T00:11:18.825Z,51.30
2023-01-19T00:13:51.969Z,52.90
2023-01-19T00:16:30.150Z,49.60
2023-01-19T00:19:13.646Z,53.00
2023-01-19T00:21:51.605Z,51.90
2023-01-19T00:24:23.878Z,50.20
2023-01-19T00:26:56.254Z,54.10
2023-01-19T00:29:33.603Z,56.70
2023-01-19T00:32:07.128Z,58.70
2023-01-19T00:34:42.749Z,61.70
2023-01-19T00:37:16.079Z,55.70
2023-01-19T00:39:49.134Z,62.00
2023-01-19T00:42:41.821Z,62.30
2023-01-19T00:45:16.675Z,68.50
2023-01-19T00:47:58.066Z,51.60
2023-01-19T00:50:38.153Z,50.00
2023-01-19T00:53:10.803Z,44.20
2023-01-19T00:55:43.229Z,49.60
2023-01-19T00:58:15.362Z,44.70
2023-01-19T01:00:47.477Z,44.20
2023-01-19T01:03:28.167Z,45.30
2023-01-19T01:06:09.999Z,50.30
2023-01-19T01:08:44.184Z,43.30
2023-01-19T01:11:17.684Z,46.50
2023-01-19T01:13:50.872Z,47.40
2023-01-19T01:16:25.893Z,48.80
2023-01-19T01:19:00.750Z,51.20
2023-01-19T01:21:34.689Z,45.90
2023-01-19T01:24:08.039Z,46.00
2023-01-19T01:26:48.210Z,44.50
2023-01-19T01:29:24.038Z,42.30
2023-01-19T01:32:01.404Z,43.30
2023-01-19T01:34:33.946Z,44.00
2023-01-19T01:37:09.983Z,49.90
2023-01-19T01:39:45.466Z,48.30
2023-01-19T01:42:31.525Z,47.50
2023-01-19T01:45:29.836Z,42.70
2023-01-19T01:48:07.559Z,41.80
2023-01-19T01:51:03.970Z,44.70
2023-01-19T01:53:38.602Z,48.80
2023-01-19T01:56:16.479Z,45.20
2023-01-19T01:58:51.905Z,45.30
2023-01-19T02:01:41.977Z,43.20
2023-01-19T02:04:17.586Z,44.20
2023-01-19T02:07:07.734Z,49.80
2023-01-19T02:09:59.119Z,51.60
2023-01-19T02:12:50.641Z,49.50
2023-01-19T02:15:28.045Z,47.90
2023-01-19T02:18:00.419Z,45.40
2023-01-19T02:21:00.836Z,42.70
2023-01-19T02:23:44.106Z,54.40
2023-01-19T02:26:23.450Z,58.50
2023-01-19T02:28:59.355Z,64.30
2023-01-19T02:31:33.955Z,74.20
2023-01-19T02:34:08.243Z,75.10
2023-01-19T02:36:52.141Z,56.60
2023-01-19T02:39:30.401Z,69.30
2023-01-19T02:42:09.102Z,54.10
2023-01-19T02:44:53.518Z,46.60
2023-01-19T02:47:28.848Z,47.00
2023-01-19T02:50:01.831Z,47.00
2023-01-19T02:52:34.207Z,56.00
2023-01-19T02:55:19.444Z,52.50
2023-01-19T02:58:00.904Z,51.60
2023-01-19T03:00:48.076Z,43.70
2023-01-19T03:03:32.039Z,40.80
2023-01-19T03:06:11.614Z,45.80
2023-01-19T03:08:53.255Z,43.90
2023-01-19T03:11:30.428Z,66.30
2023-01-19T03:14:13.509Z,62.50
2023-01-19T03:16:49.139Z,73.80
2023-01-19T03:19:28.372Z,67.30
2023-01-19T03:22:06.864Z,71.10
2023-01-19T03:24:43.393Z,57.80
2023-01-19T03:27:26.392Z,67.80
2023-01-19T03:30:02.941Z,72.80
2023-01-19T03:32:41.074Z,61.10
2023-01-19T03:35:17.661Z,60.70
2023-01-19T03:37:53.081Z,72.50
2023-01-19T03:40:28.996Z,77.00
2023-01-19T03:43:05.578Z,78.50
2023-01-19T03:45:41.926Z,67.80
2023-01-19T03:48:17.781Z,70.90
2023-01-19T03:50:50.519Z,65.20
2023-01-19T03:53:23.691Z,77.80
2023-01-19T03:55:55.906Z,74.70
2023-01-19T03:58:28.332Z,66.40
2023-01-19T04:01:00.942Z,69.10
2023-01-19T04:03:33.657Z,65.40
2023-01-19T04:06:07.732Z,73.70
2023-01-19T04:08:40.794Z,76.40
2023-01-19T04:11:15.355Z,66.50
2023-01-19T04:13:47.850Z,69.60
2023-01-19T04:16:21.345Z,65.20
2023-01-19T04:18:54.722Z,78.40
2023-01-19T04:23:57.838Z,83.90
2023-01-19T04:26:30.250Z,82.60
2023-01-19T04:29:05.693Z,79.50
2023-01-19T04:31:40.536Z,84.10
2023-01-19T04:34:13.039Z,92.20
2023-01-19T04:36:48.095Z,87.40
2023-01-19T04:39:40.678Z,84.60
2023-01-19T04:42:13.133Z,80.30
2023-01-19T04:45:05.959Z,95.80
2023-01-19T04:47:53.015Z,93.60
2023-01-19T04:50:25.452Z,88.70
2023-01-19T04:52:58.463Z,80.70
2023-01-19T04:55:33.923Z,78.50
2023-01-19T04:58:11.873Z,80.20
2023-01-19T05:00:55.525Z,71.50
2023-01-19T05:03:31.304Z,71.80
2023-01-19T05:06:20.520Z,69.20
2023-01-19T05:09:02.031Z,69.00
2023-01-19T05:14:13.822Z,54.40
2023-01-19T05:16:48.782Z,54.20
2023-01-19T05:19:23.846Z,55.40
2023-01-19T05:22:18.320Z,55.30
2023-01-19T05:24:50.582Z,79.70
2023-01-19T05:27:22.829Z,93.10
2023-01-19T05:29:55.160Z,100.90
2023-01-19T05:32:27.780Z,118.30
2023-01-19T05:35:00.219Z,99.80
2023-01-19T05:37:32.767Z,69.50
2023-01-19T05:40:05.627Z,65.10
2023-01-19T05:42:41.037Z,58.60
2023-01-19T05:45:16.578Z,61.30
2023-01-19T05:47:49.088Z,62.60
2023-01-19T05:50:21.395Z,57.20
2023-01-19T05:52:54.201Z,60.90
2023-01-19T05:55:28.854Z,61.90
2023-01-19T05:58:01.487Z,63.00
2023-01-19T06:00:36.164Z,65.10
2023-01-19T06:05:40.363Z,60.50
2023-01-19T06:08:12.774Z,67.30
2023-01-19T06:10:44.748Z,79.50
2023-01-19T06:13:17.487Z,109.50
2023-01-19T06:15:49.772Z,111.10
2023-01-19T06:20:58.662Z,82.20
2023-01-19T06:23:33.197Z,71.40
2023-01-19T06:26:06.375Z,65.30
2023-01-19T06:28:38.725Z,66.60
2023-01-19T06:31:11.210Z,82.20
2023-01-19T06:33:45.907Z,65.50
2023-01-19T06:36:18.312Z,61.40
2023-01-19T06:38:50.621Z,59.50
2023-01-19T06:41:23.127Z,51.80
2023-01-19T06:43:58.438Z,51.50
2023-01-19T06:46:30.890Z,48.80
2023-01-19T06:49:23.679Z,42.30
2023-01-19T06:51:59.306Z,34.90
2023-01-19T06:54:43.456Z,32.50
2023-01-19T06:57:20.929Z,35.10
2023-01-19T06:59:53.490Z,26.90
2023-01-19T07:02:28.545Z,25.20
2023-01-19T07:05:01.417Z,28.40
2023-01-19T07:07:33.768Z,21.30
2023-01-19T07:10:08.178Z,21.20
2023-01-19T07:12:40.855Z,16.10
2023-01-19T07:15:14.084Z,27.50
2023-01-19T07:17:46.797Z,21.70
2023-01-19T07:20:19.710Z,26.20
2023-01-19T07:22:59.024Z,31.70
2023-01-19T07:25:31.797Z,35.40
2023-01-19T07:28:09.385Z,24.50
2023-01-19T07:30:42.571Z,26.80
2023-01-19T07:33:17.846Z,23.30
2023-01-19T07:35:51.533Z,24.40
2023-01-19T07:38:24.081Z,29.70
2023-01-19T07:41:03.025Z,25.40
2023-01-19T07:43:38.179Z,45.80
2023-01-19T07:46:10.907Z,27.10
2023-01-19T07:48:47.548Z,22.10
2023-01-19T07:51:39.923Z,24.00
2023-01-19T07:54:14.792Z,19.80
2023-01-19T07:56:47.173Z,23.20
2023-01-19T07:59:19.757Z,20.50
2023-01-19T08:01:53.520Z,24.70
2023-01-19T08:04:26.255Z,21.80
2023-01-19T08:06:58.764Z,20.30
2023-01-19T08:09:30.914Z,22.40
2023-01-19T08:12:06.751Z,23.60
2023-01-19T08:14:39.370Z,19.80
2023-01-19T08:17:14.762Z,21.00
2023-01-19T08:19:47.088Z,22.20
2023-01-19T08:22:19.251Z,24.10
2023-01-19T08:24:51.850Z,27.80
2023-01-19T08:27:24.584Z,27.60
2023-01-19T08:29:59.583Z,27.20
2023-01-19T08:35:02.562Z,27.80
2023-01-19T08:37:35.070Z,28.60
2023-01-19T08:40:10.183Z,32.20
2023-01-19T08:42:42.756Z,25.50
2023-01-19T08:45:15.350Z,27.30
2023-01-19T08:47:47.963Z,29.00
2023-01-19T08:50:20.935Z,28.10
2023-01-19T08:52:53.468Z,35.50
2023-01-19T08:55:26.076Z,47.10
2023-01-19T08:58:00.107Z,43.60
2023-01-19T09:00:34.505Z,266.00
2023-01-19T09:03:12.383Z,327.40
2023-01-19T09:06:08.960Z,229.60
2023-01-19T09:08:41.367Z,343.30
2023-01-19T09:13:45.650Z,204.40
2023-01-19T09:16:18.447Z,196.30
2023-01-19T09:18:51.006Z,121.20
2023-01-19T09:23:54.760Z,112.10
2023-01-19T09:26:27.265Z,98.80
2023-01-19T09:29:08.778Z,74.20
2023-01-19T09:31:41.751Z,61.50
2023-01-19T09:34:14.028Z,54.80
2023-01-19T09:36:47.401Z,51.10
2023-01-19T09:39:20.138Z,36.70
2023-01-19T09:42:07.095Z,34.70
2023-01-19T09:44:40.541Z,59.90
2023-01-19T09:47:21.356Z,52.70
2023-01-19T09:50:00.220Z,97.10
2023-01-19T09:52:36.004Z,157.00
2023-01-19T09:55:18.950Z,126.30
2023-01-19T09:57:51.310Z,68.90
2023-01-19T10:00:27.662Z,54.10
2023-01-19T10:03:08.987Z,48.60
2023-01-19T10:05:45.828Z,42.20
2023-01-19T10:08:30.891Z,36.70
2023-01-19T10:11:03.475Z,35.20
2023-01-19T10:13:45.172Z,38.50
2023-01-19T10:16:32.120Z,35.70
2023-01-19T10:19:24.999Z,38.60
2023-01-19T10:21:59.923Z,36.30
2023-01-19T10:24:39.753Z,37.50
2023-01-19T10:27:25.507Z,33.90
2023-01-19T10:29:58.488Z,35.70
2023-01-19T10:32:34.103Z,36.30
2023-01-19T10:35:22.488Z,63.30
2023-01-19T10:37:58.093Z,47.40
2023-01-19T10:40:40.290Z,42.30
2023-01-19T10:43:38.071Z,36.90
2023-01-19T10:46:20.689Z,37.80
2023-01-19T10:48:55.329Z,33.90
2023-01-19T10:51:27.781Z,36.50
2023-01-19T10:54:03.356Z,38.90
2023-01-19T10:56:39.496Z,36.10
2023-01-19T10:59:33.969Z,31.90
2023-01-19T11:02:22.536Z,34.70
2023-01-19T11:04:57.273Z,30.40
2023-01-19T11:07:33.179Z,30.70
2023-01-19T11:10:25.923Z,28.80
2023-01-19T11:13:12.869Z,33.60
2023-01-19T11:15:50.091Z,30.90
2023-01-19T11:18:34.974Z,27.70
2023-01-19T11:21:09.410Z,33.80
2023-01-19T11:23:47.785Z,30.30
2023-01-19T11:26:28.974Z,24.90
2023-01-19T11:29:06.186Z,28.20
2023-01-19T11:32:13.444Z,36.30
2023-01-19T11:35:21.386Z,29.60
2023-01-19T11:38:08.080Z,24.80
2023-01-19T11:40:53.123Z,23.80
2023-01-19T11:43:43.369Z,33.00
2023-01-19T11:46:21.061Z,45.80
2023-01-19T11:49:01.917Z,39.00
2023-01-19T11:51:41.371Z,32.30
2023-01-19T11:54:23.877Z,31.60
2023-01-19T11:56:59.373Z,32.90
2023-01-19T11:59:31.895Z,37.10
2023-01-19T12:02:12.432Z,31.60
2023-01-19T12:04:48.164Z,32.60
2023-01-19T12:07:25.762Z,60.90
2023-01-19T12:10:15.274Z,32.50
2023-01-19T12:12:49.319Z,28.00
2023-01-19T12:15:37.433Z,30.30
2023-01-19T12:18:20.607Z,30.80
2023-01-19T12:20:55.828Z,31.10
2023-01-19T12:23:38.332Z,62.30
2023-01-19T12:26:34.466Z,37.50
2023-01-19T12:29:13.300Z,34.20
2023-01-19T12:31:45.697Z,34.50
2023-01-19T12:34:46.691Z,29.30
2023-01-19T12:37:41.687Z,34.30
2023-01-19T12:40:29.137Z,35.30
2023-01-19T12:43:04.395Z,32.20
2023-01-19T12:45:39.893Z,32.10
2023-01-19T12:48:27.640Z,27.80
2023-01-19T12:50:59.868Z,29.60
2023-01-19T12:53:37.629Z,44.40
2023-01-19T12:56:13.999Z,32.10
2023-01-19T12:58:51.115Z,33.40
2023-01-19T13:01:24.964Z,38.90
2023-01-19T13:04:07.377Z,32.60
2023-01-19T13:09:38.163Z,32.30
2023-01-19T13:12:23.220Z,33.50
2023-01-19T13:15:29.182Z,36.80
2023-01-19T13:18:03.568Z,34.20
2023-01-19T13:20:47.752Z,31.20
2023-01-19T13:23:23.747Z,36.00
2023-01-19T13:26:04.118Z,37.90
2023-01-19T13:28:43.630Z,31.80
2023-01-19T13:31:17.143Z,37.00
2023-01-19T13:33:54.414Z,32.20
2023-01-19T13:36:31.700Z,38.00
2023-01-19T13:39:08.470Z,36.70
2023-01-19T13:41:44.994Z,30.80
2023-01-19T13:44:19.922Z,27.90
2023-01-19T13:46:53.774Z,32.20
2023-01-19T13:49:31.606Z,31.00
2023-01-19T13:52:15.455Z,33.00
2023-01-19T13:55:00.540Z,32.80
2023-01-19T13:57:35.901Z,35.70
2023-01-19T14:00:18.865Z,34.70
2023-01-19T14:03:02.739Z,34.20
2023-01-19T14:05:38.503Z,37.30
2023-01-19T14:08:18.271Z,36.10
2023-01-19T14:11:03.237Z,38.20
2023-01-19T14:13:40.272Z,40.60
2023-01-19T14:16:37.411Z,40.50
2023-01-19T14:19:09.735Z,41.70
2023-01-19T14:24:20.324Z,43.00
2023-01-19T14:26:54.848Z,47.50
2023-01-19T14:29:29.034Z,43.60
2023-01-19T14:32:18.505Z,46.30
2023-01-19T14:35:12.484Z,45.50
2023-01-19T14:37:51.331Z,44.50
2023-01-19T14:40:26.831Z,54.50
2023-01-19T14:43:03.999Z,40.40
2023-01-19T14:45:39.373Z,37.10
2023-01-19T14:48:19.402Z,38.40
2023-01-19T14:51:03.684Z,34.60
2023-01-19T14:53:39.556Z,34.10
2023-01-19T14:56:12.056Z,30.50
2023-01-19T14:58:44.414Z,29.10
2023-01-19T15:03:50.565Z,36.40
2023-01-19T15:06:24.553Z,39.30
2023-01-19T15:08:57.126Z,41.80
2023-01-19T15:11:32.233Z,48.60
2023-01-19T15:14:05.319Z,47.30
2023-01-19T15:16:40.296Z,44.40
2023-01-19T15:19:16.666Z,43.90
2023-01-19T15:21:48.799Z,43.20
2023-01-19T15:24:23.451Z,46.60
2023-01-19T15:27:02.772Z,46.20
2023-01-19T15:29:37.667Z,48.10
2023-01-19T15:32:15.076Z,48.30
2023-01-19T15:34:52.682Z,54.80
2023-01-19T15:37:42.501Z,60.30
2023-01-19T15:40:16.701Z,53.50
2023-01-19T15:42:53.240Z,52.70
2023-01-19T15:45:51.582Z,48.50
2023-01-19T15:48:33.460Z,41.70
2023-01-19T15:51:13.845Z,56.00
2023-01-19T15:54:11.762Z,53.40
2023-01-19T15:56:50.969Z,67.60
2023-01-19T15:59:28.865Z,46.10
2023-01-19T16:02:12.776Z,46.70
2023-01-19T16:04:59.815Z,50.00
2023-01-19T16:07:40.489Z,47.20
2023-01-19T16:13:36.665Z,44.30
2023-01-19T16:16:16.396Z,47.20
2023-01-19T16:18:50.337Z,56.10
2023-01-19T16:21:27.607Z,45.90
2023-01-19T16:24:03.142Z,58.00
2023-01-19T16:26:43.165Z,67.10
2023-01-19T16:29:15.877Z,76.80
2023-01-19T16:31:48.412Z,62.00
2023-01-19T16:34:20.902Z,54.70
2023-01-19T16:36:53.926Z,61.20
2023-01-19T16:39:26.479Z,51.70
2023-01-19T16:42:01.912Z,60.40
2023-01-19T16:44:37.406Z,52.00
2023-01-19T16:47:09.831Z,53.10
2023-01-19T16:49:42.378Z,46.30
2023-01-19T16:52:14.752Z,47.70
2023-01-19T16:54:47.522Z,51.50
2023-01-19T16:57:20.004Z,44.90
2023-01-19T16:59:52.278Z,43.70
2023-01-19T17:02:24.844Z,58.20
2023-01-19T17:05:00.342Z,53.60
2023-01-19T17:07:36.316Z,56.30
2023-01-19T17:10:11.343Z,68.60
2023-01-19T17:12:44.084Z,71.40
2023-01-19T17:15:17.127Z,85.40
2023-01-19T17:17:50.242Z,82.00
2023-01-19T17:20:22.624Z,68.70
2023-01-19T17:22:56.129Z,83.30
2023-01-19T17:25:28.733Z,88.40
2023-01-19T17:28:02.933Z,82.60
2023-01-19T17:30:36.507Z,86.70
2023-01-19T17:33:09.648Z,91.10
2023-01-19T17:35:46.754Z,74.60
2023-01-19T17:38:19.374Z,95.20
2023-01-19T17:40:54.771Z,86.20
2023-01-19T17:43:27.509Z,85.50
2023-01-19T17:46:03.844Z,65.80
2023-01-19T17:48:39.372Z,58.20
2023-01-19T17:51:15.501Z,62.90
2023-01-19T17:53:50.795Z,70.00
2023-01-19T17:56:27.763Z,73.30
2023-01-19T17:59:00.703Z,85.60
2023-01-19T18:01:34.539Z,91.60
2023-01-19T18:04:10.553Z,93.20
2023-01-19T18:06:47.233Z,94.90
2023-01-19T18:09:19.716Z,92.90
2023-01-19T18:11:52.303Z,102.00
2023-01-19T18:14:27.542Z,99.30
2023-01-19T18:17:00.585Z,92.20
2023-01-19T18:19:33.504Z,96.80
2023-01-19T18:22:08.266Z,81.70
2023-01-19T18:24:43.842Z,117.80
2023-01-19T18:27:17.646Z,109.90
2023-01-19T18:30:01.139Z,84.70
2023-01-19T18:32:35.987Z,79.20
2023-01-19T18:35:10.300Z,72.00
2023-01-19T18:37:44.855Z,69.90
2023-01-19T18:40:17.825Z,71.00
2023-01-19T18:42:50.397Z,68.70
2023-01-19T18:45:23.000Z,53.00
2023-01-19T18:47:58.547Z,53.40
2023-01-19T18:50:31.629Z,54.50
2023-01-19T18:53:04.175Z,48.80
2023-01-19T18:55:36.844Z,52.40
2023-01-19T18:58:09.275Z,57.00
2023-01-19T19:03:12.341Z,50.60
2023-01-19T19:05:48.013Z,57.70
2023-01-19T19:08:20.612Z,61.50
2023-01-19T19:10:53.191Z,57.80
2023-01-19T19:13:25.662Z,63.80
2023-01-19T19:16:05.618Z,63.70
2023-01-19T19:18:50.143Z,57.40
2023-01-19T19:21:25.743Z,59.90
2023-01-19T19:24:01.061Z,54.10
2023-01-19T19:26:37.227Z,55.30
2023-01-19T19:29:09.510Z,56.00
2023-01-19T19:31:46.222Z,51.80
2023-01-19T19:34:18.617Z,41.60
2023-01-19T19:37:01.281Z,47.20
2023-01-19T19:39:41.090Z,43.80
2023-01-19T19:42:13.618Z,41.60
2023-01-19T19:44:46.379Z,43.80
2023-01-19T19:47:19.010Z,42.50
2023-01-19T19:49:51.610Z,48.10
2023-01-19T19:52:23.722Z,46.40
2023-01-19T19:54:56.072Z,48.60
2023-01-19T19:59:59.279Z,37.20
2023-01-19T20:05:17.909Z,41.40
2023-01-19T20:07:51.118Z,56.00
2023-01-19T20:10:25.115Z,128.80
2023-01-19T20:13:00.352Z,80.80
2023-01-19T20:15:39.126Z,53.30
2023-01-19T20:18:22.169Z,46.60
2023-01-19T20:21:00.516Z,41.70
2023-01-19T20:23:33.660Z,597.60
2023-01-19T20:26:09.252Z,451.80
2023-01-19T20:28:43.348Z,323.80
2023-01-19T20:31:19.782Z,335.50
2023-01-19T20:33:56.781Z,218.10
2023-01-19T20:36:41.873Z,74.50
2023-01-19T20:39:30.125Z,54.50
2023-01-19T20:42:09.907Z,47.90
2023-01-19T20:44:43.007Z,50.70
2023-01-19T20:47:15.944Z,64.20
2023-01-19T20:49:48.429Z,58.90
2023-01-19T20:52:24.079Z,44.00
2023-01-19T20:54:56.618Z,41.50
2023-01-19T20:57:29.158Z,50.70
2023-01-19T21:00:01.912Z,56.40
2023-01-19T21:02:34.559Z,58.20
2023-01-19T21:05:13.687Z,50.30
2023-01-19T21:07:51.425Z,45.10
2023-01-19T21:10:24.073Z,40.80
2023-01-19T21:12:59.560Z,43.10
2023-01-19T21:15:35.198Z,49.10
2023-01-19T21:18:16.250Z,37.60
2023-01-19T21:23:40.449Z,38.60
2023-01-19T21:28:53.627Z,47.30
2023-01-19T21:31:30.015Z,33.70
2023-01-19T21:34:02.799Z,61.00
2023-01-19T21:36:35.292Z,117.40
2023-01-19T21:39:08.288Z,87.00
2023-01-19T21:41:43.811Z,74.20
2023-01-19T21:44:16.446Z,63.50
2023-01-19T21:46:48.520Z,124.40
2023-01-19T21:49:21.822Z,76.40
2023-01-19T21:51:57.047Z,58.50
2023-01-19T21:54:31.973Z,51.90
2023-01-19T21:57:06.806Z,46.80
2023-01-19T22:02:12.979Z,42.40
2023-01-19T22:04:45.472Z,45.70
2023-01-19T22:07:20.400Z,45.10
2023-01-19T22:09:55.533Z,43.80
2023-01-19T22:12:27.847Z,47.30
2023-01-19T22:15:02.971Z,42.80
2023-01-19T22:17:37.956Z,40.60
2023-01-19T22:20:13.758Z,43.00
2023-01-19T22:22:48.782Z,45.90
2023-01-19T22:25:35.165Z,47.40
2023-01-19T22:30:49.724Z,40.60
2023-01-19T22:33:25.231Z,43.70
2023-01-19T22:38:29.074Z,41.00
2023-01-19T22:41:11.819Z,48.30
2023-01-19T22:43:43.946Z,52.60
2023-01-19T22:46:20.193Z,57.30
2023-01-19T22:48:53.205Z,54.80
2023-01-19T22:51:26.999Z,53.20
2023-01-19T22:54:19.303Z,47.10
2023-01-19T22:56:51.684Z,53.70
2023-01-19T22:59:26.571Z,59.50
2023-01-19T23:02:12.442Z,56.30
2023-01-19T23:04:49.572Z,52.90
2023-01-19T23:07:24.830Z,54.60
2023-01-19T23:09:56.983Z,51.40
2023-01-19T23:12:29.229Z,56.20
2023-01-19T23:15:04.673Z,60.10
2023-01-19T23:17:43.824Z,62.30
2023-01-19T23:20:17.055Z,59.20
2023-01-19T23:22:59.384Z,60.20
2023-01-19T23:25:35.959Z,56.60
2023-01-19T23:28:11.350Z,57.30
2023-01-19T23:30:43.652Z,52.40
2023-01-19T23:33:15.951Z,52.10
2023-01-19T23:35:48.456Z,51.20
2023-01-19T23:38:23.335Z,56.50
2023-01-19T23:43:49.840Z,49.10
2023-01-19T23:46:25.811Z,52.70
2023-01-19T23:48:58.333Z,55.70
2023-01-19T23:51:32.885Z,61.00
2023-01-19T23:54:08.260Z,51.70
2023-01-19T23:56:47.825Z,59.20
